Time;durP1;ratioP1;P1;durP2;ratioP2;P2;SDS_P1;SDS_P2;PMS_P1;PMS_P2;Temp;Humidity;BMP_temperature;BMP_pressure;BME280_temperature;BME280_humidity;BME280_pressure;Samples;Min_cycle;Max_cycle;Signal;HPM_P1;HPM_P2
2023/03/18 00:00:10;;;;;;;18.13;4.73;;;27.80;67.60;;;;;;5010100;28;20177;-70
2023/03/18 00:02:39;;;;;;;11.00;4.70;;;27.80;67.80;;;;;;4974156;28;20213;-72
2023/03/18 00:05:08;;;;;;;15.27;5.10;;;27.80;67.40;;;;;;4976341;28;20732;-70
2023/03/18 00:07:36;;;;;;;13.87;4.73;;;28.00;67.20;;;;;;4999547;28;20181;-68
2023/03/18 00:10:05;;;;;;;11.97;5.00;;;27.80;66.80;;;;;;4986026;28;20558;-73
2023/03/18 00:12:33;;;;;;;11.23;4.70;;;27.90;67.50;;;;;;4983234;28;20186;-74
2023/03/18 00:15:01;;;;;;;16.67;5.27;;;27.80;66.50;;;;;;4991680;28;20182;-75
2023/03/18 00:17:28;;;;;;;19.87;5.43;;;27.50;67.50;;;;;;4989765;28;20638;-73
2023/03/18 00:19:56;;;;;;;12.33;5.33;;;27.60;68.30;;;;;;4982077;28;20182;-72
2023/03/18 00:22:23;;;;;;;16.33;5.63;;;27.90;67.30;;;;;;5007142;28;20188;-74
2023/03/18 00:24:51;;;;;;;13.60;5.40;;;27.80;67.90;;;;;;4992023;28;20230;-68
2023/03/18 00:27:19;;;;;;;18.40;6.30;;;27.90;67.50;;;;;;4995423;28;20237;-74
2023/03/18 00:29:47;;;;;;;12.43;5.17;;;28.30;66.60;;;;;;5003192;28;20217;-69
2023/03/18 00:32:14;;;;;;;17.17;5.90;;;28.30;65.10;;;;;;5002730;28;20269;-69
2023/03/18 00:34:41;;;;;;;15.57;6.10;;;28.30;65.60;;;;;;5005762;28;20212;-70
2023/03/18 00:37:09;;;;;;;13.07;5.97;;;28.30;65.00;;;;;;5003011;28;20190;-74
2023/03/18 00:39:36;;;;;;;12.27;5.63;;;28.60;65.30;;;;;;4994946;28;20190;-74
2023/03/18 00:42:09;;;;;;;12.70;5.90;;;28.30;65.70;;;;;;4996978;28;20302;-73
2023/03/18 00:44:37;;;;;;;15.63;6.13;;;28.50;65.70;;;;;;4995050;28;20308;-68
2023/03/18 00:47:05;;;;;;;16.43;6.77;;;28.80;64.40;;;;;;5002862;28;20189;-75
2023/03/18 00:49:33;;;;;;;16.33;6.37;;;28.60;64.10;;;;;;4991508;28;20194;-73
2023/03/18 00:52:00;;;;;;;14.73;6.43;;;28.70;64.60;;;;;;4992957;28;20655;-75
2023/03/18 00:54:27;;;;;;;16.63;6.07;;;28.80;63.40;;;;;;4994935;28;20754;-75
2023/03/18 00:56:56;;;;;;;13.63;6.80;;;28.90;63.40;;;;;;4995067;28;20200;-74
2023/03/18 00:59:24;;;;;;;16.83;7.47;;;29.00;63.60;;;;;;4992406;28;20248;-78
2023/03/18 01:01:52;;;;;;;16.00;6.73;;;29.20;62.70;;;;;;4991372;28;20197;-75
2023/03/18 01:04:20;;;;;;;14.43;6.47;;;29.40;62.30;;;;;;4994270;28;20226;-74
2023/03/18 01:06:47;;;;;;;9.33;6.47;;;29.40;61.60;;;;;;4996956;28;20188;-73
2023/03/18 01:09:15;;;;;;;11.37;6.37;;;29.30;62.40;;;;;;4994028;28;20593;-73
2023/03/18 01:11:42;;;;;;;21.63;7.23;;;29.30;61.50;;;;;;4991025;28;20182;-75
2023/03/18 01:14:11;;;;;;;17.47;6.27;;;28.80;63.60;;;;;;4995930;28;20238;-74
2023/03/18 01:16:38;;;;;;;17.20;6.10;;;29.00;64.60;;;;;;4995623;28;20174;-76
2023/03/18 01:19:06;;;;;;;17.20;6.13;;;29.30;64.20;;;;;;5001206;28;20192;-74
2023/03/18 01:21:33;;;;;;;15.93;5.60;;;29.30;64.00;;;;;;5010770;28;20628;-73
2023/03/18 01:24:01;;;;;;;19.07;5.90;;;29.10;64.40;;;;;;4994410;28;20252;-73
2023/03/18 01:26:28;;;;;;;17.97;6.17;;;29.30;64.10;;;;;;4994781;28;20178;-76
2023/03/18 01:28:55;;;;;;;14.80;6.03;;;29.40;63.40;;;;;;4991947;28;20186;-73
2023/03/18 01:31:24;;;;;;;12.57;5.40;;;29.50;64.00;;;;;;5000180;28;20265;-78
2023/03/18 01:33:53;;;;;;;14.50;5.83;;;29.60;63.20;;;;;;4995931;28;20236;-74
2023/03/18 01:36:21;;;;;;;18.43;6.03;;;29.40;63.60;;;;;;4995920;28;20186;-73
2023/03/18 01:38:48;;;;;;;16.17;5.97;;;29.60;63.50;;;;;;4998917;28;20178;-68
2023/03/18 01:41:16;;;;;;;17.70;6.57;;;29.60;62.70;;;;;;5002348;28;20184;-72
2023/03/18 01:43:43;;;;;;;20.83;6.83;;;29.60;63.10;;;;;;4999688;28;20205;-72
2023/03/18 01:46:33;;;;;;;19.23;7.73;;;29.70;62.80;;;;;;4997921;28;20627;-73
2023/03/18 01:49:05;;;;;;;15.40;6.80;;;29.60;62.80;;;;;;5005682;28;20297;-75
2023/03/18 01:51:33;;;;;;;12.47;6.90;;;29.70;62.20;;;;;;4993129;28;20272;-77
2023/03/18 01:54:04;;;;;;;15.97;7.03;;;29.60;62.50;;;;;;4998559;28;20231;-75
2023/03/18 01:56:32;;;;;;;18.77;6.80;;;29.50;62.40;;;;;;5000091;28;20182;-72
2023/03/18 01:59:00;;;;;;;16.63;6.97;;;29.80;62.40;;;;;;4999310;28;20246;-74
2023/03/18 02:01:45;;;;;;;15.77;7.50;;;29.50;62.80;;;;;;4988195;28;21137;-68
2023/03/18 02:04:13;;;;;;;18.07;6.53;;;29.60;62.70;;;;;;4985374;28;20228;-79
2023/03/18 02:06:41;;;;;;;14.13;6.67;;;29.90;62.20;;;;;;5003972;28;20181;-68
2023/03/18 02:09:10;;;;;;;19.67;6.30;;;30.00;61.10;;;;;;5000899;28;20231;-75
2023/03/18 02:11:41;;;;;;;17.60;7.40;;;29.80;62.20;;;;;;5014132;28;20165;-74
2023/03/18 02:14:12;;;;;;;12.27;6.40;;;29.90;60.90;;;;;;5013761;28;20315;-68
2023/03/18 02:16:56;;;;;;;14.67;7.03;;;30.40;61.30;;;;;;5013998;28;20177;-74
2023/03/18 02:19:45;;;;;;;15.67;6.80;;;30.50;60.20;;;;;;4979584;28;20232;-75
2023/03/18 02:22:33;;;;;;;16.70;7.15;;;30.30;60.70;;;;;;4981849;28;20176;-74
2023/03/18 02:25:16;;;;;;;13.95;6.10;;;30.40;59.80;;;;;;4992584;28;20272;-75
2023/03/18 02:27:46;;;;;;;19.37;7.53;;;30.30;60.50;;;;;;4983257;28;20188;-70
2023/03/18 02:30:22;;;;;;;15.17;6.73;;;30.30;59.80;;;;;;4994278;28;20174;-70
2023/03/18 02:32:51;;;;;;;11.57;6.18;;;30.60;59.70;;;;;;4996316;28;20220;-70
2023/03/18 02:35:19;;;;;;;10.93;5.72;;;30.40;59.60;;;;;;4996977;28;20209;-75
2023/03/18 02:37:46;;;;;;;18.38;6.95;;;30.40;59.60;;;;;;5004536;28;20181;-69
2023/03/18 02:40:15;;;;;;;14.13;6.75;;;30.30;59.60;;;;;;5000479;28;20185;-71
2023/03/18 02:42:44;;;;;;;14.75;6.10;;;30.40;59.60;;;;;;5013309;28;20536;-73
2023/03/18 02:45:28;;;;;;;10.35;6.85;;;30.50;58.80;;;;;;5013016;28;20229;-68
2023/03/18 02:47:57;;;;;;;13.05;7.32;;;30.80;58.60;;;;;;5005959;28;20181;-73
2023/03/18 02:50:25;;;;;;;11.10;5.93;;;31.00;58.00;;;;;;5009119;28;20543;-72
2023/03/18 02:52:52;;;;;;;13.20;6.05;;;31.40;56.60;;;;;;4992263;28;20677;-73
2023/03/18 02:55:20;;;;;;;12.90;5.97;;;31.10;56.40;;;;;;4985437;28;20401;-72
2023/03/18 02:57:47;;;;;;;13.75;6.10;;;31.20;56.60;;;;;;4986163;28;20193;-75
2023/03/18 03:00:15;;;;;;;14.82;6.32;;;31.00;57.30;;;;;;5001136;28;20731;-76
2023/03/18 03:02:43;;;;;;;14.13;5.70;;;31.30;56.90;;;;;;4982172;28;20182;-71
2023/03/18 03:05:11;;;;;;;16.40;5.95;;;31.40;56.20;;;;;;4980947;28;20225;-75
2023/03/18 03:07:38;;;;;;;11.13;6.03;;;31.20;56.40;;;;;;4998121;28;20660;-75
2023/03/18 03:10:07;;;;;;;10.82;6.32;;;31.10;56.10;;;;;;4995231;28;20277;-74
2023/03/18 03:12:36;;;;;;;20.88;6.00;;;31.50;55.90;;;;;;5010201;28;20182;-74
2023/03/18 03:15:07;;;;;;;12.27;5.50;;;31.70;55.10;;;;;;5004704;28;20216;-72
2023/03/18 03:17:34;;;;;;;14.95;5.60;;;31.70;55.00;;;;;;5013230;28;20162;-76
2023/03/18 03:20:04;;;;;;;11.50;5.80;;;31.60;54.80;;;;;;5009361;28;20190;-68
2023/03/18 03:22:33;;;;;;;20.23;6.47;;;31.30;55.50;;;;;;5002384;28;20325;-67
2023/03/18 03:25:00;;;;;;;12.32;5.60;;;31.80;54.60;;;;;;4990023;28;20225;-75
2023/03/18 03:27:29;;;;;;;11.70;5.35;;;32.10;53.90;;;;;;4987101;28;20183;-77
2023/03/18 03:29:56;;;;;;;12.07;5.35;;;31.80;54.50;;;;;;4986679;28;20177;-75
2023/03/18 03:32:24;;;;;;;11.25;5.82;;;32.00;53.60;;;;;;4996328;28;20178;-72
2023/03/18 03:34:51;;;;;;;11.73;5.53;;;31.80;54.50;;;;;;4996441;28;20538;-74
2023/03/18 03:37:18;;;;;;;12.05;5.60;;;31.40;54.80;;;;;;4999861;28;20189;-77
2023/03/18 03:39:46;;;;;;;14.32;5.22;;;31.50;55.30;;;;;;4991811;28;20181;-77
2023/03/18 03:42:13;;;;;;;11.73;5.13;;;31.80;54.60;;;;;;5000099;28;20173;-72
2023/03/18 03:44:41;;;;;;;13.85;6.03;;;31.80;54.00;;;;;;4972652;28;20210;-70
2023/03/18 03:47:08;;;;;;;12.13;5.32;;;31.80;54.00;;;;;;4990164;28;20573;-76
2023/03/18 03:49:36;;;;;;;10.32;5.68;;;31.80;54.90;;;;;;4994997;28;20319;-70
2023/03/18 03:52:04;;;;;;;13.68;6.15;;;32.00;54.70;;;;;;4995931;28;20184;-69
2023/03/18 03:54:31;;;;;;;9.35;4.38;;;31.90;54.60;;;;;;4996063;28;20641;-67
2023/03/18 03:56:59;;;;;;;8.40;4.47;;;32.20;54.30;;;;;;4991122;28;20538;-69
2023/03/18 03:59:27;;;;;;;12.30;4.93;;;32.50;52.90;;;;;;4990926;28;20186;-74
2023/03/18 04:01:54;;;;;;;11.88;4.47;;;32.10;53.00;;;;;;4980385;28;20197;-70
2023/03/18 04:04:22;;;;;;;10.63;4.80;;;32.00;53.50;;;;;;4999657;28;20221;-77
2023/03/18 04:06:50;;;;;;;12.45;4.47;;;31.80;54.00;;;;;;4988289;28;20177;-76
2023/03/18 04:09:17;;;;;;;9.43;4.43;;;32.10;53.50;;;;;;4996644;28;20174;-73
2023/03/18 04:11:44;;;;;;;11.57;4.15;;;31.90;53.30;;;;;;5006692;28;20244;-70
2023/03/18 04:14:12;;;;;;;11.13;4.57;;;31.80;53.60;;;;;;5012555;28;20222;-68
2023/03/18 04:16:39;;;;;;;13.95;4.50;;;31.80;53.80;;;;;;4996822;28;20184;-77
2023/03/18 04:19:07;;;;;;;16.52;4.75;;;31.90;54.60;;;;;;4994132;28;20182;-74
2023/03/18 04:21:35;;;;;;;9.50;4.55;;;32.50;52.90;;;;;;5013611;28;20204;-69
2023/03/18 04:24:03;;;;;;;13.25;4.53;;;32.80;51.50;;;;;;5016277;28;20197;-74
2023/03/18 04:26:31;;;;;;;13.13;4.40;;;32.40;53.00;;;;;;5016405;28;20170;-67
2023/03/18 04:28:59;;;;;;;14.77;5.03;;;32.40;53.70;;;;;;5015514;28;20181;-74
2023/03/18 04:31:27;;;;;;;10.23;4.18;;;32.20;53.30;;;;;;5015710;28;20228;-74
2023/03/18 04:33:54;;;;;;;11.18;4.32;;;31.90;54.30;;;;;;5016193;28;20709;-72
2023/03/18 04:36:22;;;;;;;11.68;4.00;;;31.80;54.40;;;;;;5016090;28;20542;-74
2023/03/18 04:38:50;;;;;;;11.65;4.53;;;31.90;54.30;;;;;;5015376;28;20177;-68
2023/03/18 04:41:17;;;;;;;10.40;4.47;;;32.00;54.90;;;;;;5015395;28;20174;-68
2023/03/18 04:43:44;;;;;;;10.52;4.97;;;32.70;52.80;;;;;;5015294;28;20250;-71
2023/03/18 04:46:12;;;;;;;14.25;4.28;;;32.80;52.60;;;;;;5015788;28;20589;-71
2023/03/18 04:48:40;;;;;;;9.93;4.43;;;32.30;54.10;;;;;;5015452;28;20170;-72
2023/03/18 04:51:08;;;;;;;12.13;4.13;;;32.20;53.80;;;;;;5015723;28;20185;-68
2023/03/18 04:53:42;;;;;;;11.40;4.43;;;32.10;54.60;;;;;;5015643;28;20209;-74
2023/03/18 04:56:09;;;;;;;11.90;4.70;;;32.50;53.00;;;;;;5015568;28;20643;-67
2023/03/18 04:58:36;;;;;;;8.88;4.20;;;32.80;52.00;;;;;;5015715;28;20177;-73
2023/03/18 05:01:04;;;;;;;10.70;3.97;;;32.80;52.00;;;;;;5015582;28;20647;-71
2023/03/18 05:03:31;;;;;;;13.73;3.88;;;32.80;52.00;;;;;;5015168;28;20205;-68
2023/03/18 05:05:59;;;;;;;16.52;5.00;;;32.40;53.00;;;;;;5015695;28;20188;-72
2023/03/18 05:08:26;;;;;;;11.07;4.60;;;32.30;53.50;;;;;;5015538;28;20651;-71
2023/03/18 05:10:54;;;;;;;11.27;4.55;;;32.60;54.00;;;;;;5015276;28;20181;-71
2023/03/18 05:13:21;;;;;;;14.77;5.40;;;32.30;55.10;;;;;;5015362;28;20221;-68
2023/03/18 05:15:48;;;;;;;10.98;4.93;;;32.40;55.40;;;;;;5015295;28;20178;-75
2023/03/18 05:18:16;;;;;;;16.33;4.18;;;32.30;55.40;;;;;;5015001;28;20188;-75
2023/03/18 05:20:44;;;;;;;12.23;5.07;;;32.70;54.20;;;;;;5015359;28;20488;-71
2023/03/18 05:23:12;;;;;;;9.90;4.50;;;32.40;55.70;;;;;;5015089;28;20588;-67
2023/03/18 05:25:39;;;;;;;17.17;5.13;;;32.40;55.20;;;;;;5015110;28;20601;-76
2023/03/18 05:28:06;;;;;;;22.17;5.95;;;32.40;55.70;;;;;;5014869;28;20585;-75
2023/03/18 05:30:35;;;;;;;16.23;5.05;;;32.50;56.10;;;;;;5014968;28;20176;-73
2023/03/18 05:33:03;;;;;;;13.30;4.80;;;32.80;55.30;;;;;;5014964;28;20223;-72
2023/03/18 05:35:31;;;;;;;15.30;4.72;;;33.10;54.90;;;;;;4977892;28;20186;-74
2023/03/18 05:37:58;;;;;;;14.10;5.20;;;32.30;56.30;;;;;;5014917;28;20197;-79
2023/03/18 05:40:25;;;;;;;19.90;5.53;;;32.40;56.40;;;;;;5014845;28;20263;-72
2023/03/18 05:42:53;;;;;;;15.07;4.55;;;32.30;56.50;;;;;;5014730;28;20184;-72
2023/03/18 05:45:20;;;;;;;20.98;5.15;;;32.10;57.10;;;;;;5014731;28;20207;-72
2023/03/18 05:47:48;;;;;;;18.00;5.07;;;32.60;56.60;;;;;;5014230;28;20180;-73
2023/03/18 05:50:27;;;;;;;20.58;4.82;;;33.30;54.40;;;;;;5014635;28;20189;-68
2023/03/18 05:52:55;;;;;;;15.68;4.90;;;33.00;55.70;;;;;;5014748;28;20187;-73
2023/03/18 05:55:22;;;;;;;12.98;4.55;;;33.20;54.70;;;;;;5014407;28;20185;-72
2023/03/18 05:57:50;;;;;;;18.80;4.82;;;33.10;55.20;;;;;;5014401;28;20641;-77
2023/03/18 06:00:18;;;;;;;16.10;5.10;;;32.40;56.70;;;;;;5014073;28;20181;-68
2023/03/18 06:02:45;;;;;;;16.00;4.93;;;32.30;57.40;;;;;;4975419;28;20175;-73
2023/03/18 06:05:13;;;;;;;20.38;5.50;;;32.00;58.10;;;;;;4995630;28;20242;-71
2023/03/18 06:07:41;;;;;;;24.95;4.40;;;32.20;57.50;;;;;;5014186;28;20656;-70
2023/03/18 06:10:10;;;;;;;23.08;5.57;;;32.10;57.60;;;;;;5014398;28;20185;-72
2023/03/18 06:12:38;;;;;;;14.32;4.15;;;32.30;57.00;;;;;;5014198;28;20549;-69
2023/03/18 06:15:07;;;;;;;19.20;4.45;;;32.20;58.00;;;;;;5013783;28;20185;-78
2023/03/18 06:17:35;;;;;;;14.52;4.90;;;32.60;56.30;;;;;;5013979;28;20181;-75
2023/03/18 06:20:04;;;;;;;17.50;4.80;;;32.80;56.60;;;;;;5005414;28;20190;-71
2023/03/18 06:22:32;;;;;;;15.00;4.50;;;32.70;56.30;;;;;;4994667;28;20174;-72
2023/03/18 06:25:00;;;;;;;16.33;4.75;;;32.30;56.50;;;;;;5001755;28;20216;-68
2023/03/18 06:27:27;;;;;;;18.55;5.13;;;32.10;56.40;;;;;;5013505;28;20173;-68
2023/03/18 06:29:54;;;;;;;18.38;5.03;;;32.40;56.10;;;;;;5013909;28;20593;-72
2023/03/18 06:32:22;;;;;;;18.20;5.20;;;32.20;56.80;;;;;;5013895;28;20188;-73
2023/03/18 06:34:49;;;;;;;19.77;5.55;;;31.70;58.70;;;;;;5013695;28;20177;-69
2023/03/18 06:37:17;;;;;;;16.98;4.63;;;31.70;58.50;;;;;;5013976;28;20177;-67
2023/03/18 06:39:44;;;;;;;17.05;4.18;;;31.90;57.70;;;;;;5013286;28;20260;-74
2023/03/18 06:42:11;;;;;;;19.27;5.15;;;31.70;58.40;;;;;;5013717;28;20220;-71
2023/03/18 06:44:41;;;;;;;17.77;4.75;;;31.70;58.80;;;;;;5013125;28;20534;-70
2023/03/18 06:47:09;;;;;;;21.02;4.80;;;31.80;58.90;;;;;;5013777;28;20178;-76
2023/03/18 06:49:36;;;;;;;20.10;5.43;;;31.80;59.30;;;;;;5013264;28;20181;-73
2023/03/18 06:52:03;;;;;;;20.42;5.47;;;31.90;58.10;;;;;;5013361;28;20165;-70
2023/03/18 06:54:33;;;;;;;22.17;5.60;;;31.50;59.60;;;;;;5013362;28;20542;-67
2023/03/18 06:57:00;;;;;;;15.93;4.55;;;31.10;61.10;;;;;;5013379;28;20177;-73
2023/03/18 06:59:28;;;;;;;19.17;4.82;;;30.90;61.30;;;;;;5012726;28;20173;-69
2023/03/18 07:01:55;;;;;;;21.10;4.78;;;30.40;63.50;;;;;;5013470;28;20185;-70
2023/03/18 07:04:22;;;;;;;24.05;5.82;;;30.40;63.20;;;;;;5013283;28;20244;-77
2023/03/18 07:06:51;;;;;;;27.23;5.78;;;30.10;64.60;;;;;;5013280;28;20508;-70
2023/03/18 07:09:19;;;;;;;19.10;5.03;;;30.10;64.90;;;;;;5013334;28;20272;-68
2023/03/18 07:11:46;;;;;;;23.13;6.22;;;30.10;64.80;;;;;;5013028;28;20181;-72
2023/03/18 07:14:14;;;;;;;22.55;5.93;;;30.10;65.10;;;;;;5009552;28;20228;-75
2023/03/18 07:16:42;;;;;;;20.75;5.32;;;29.90;65.90;;;;;;5003795;28;20569;-68
2023/03/18 07:19:10;;;;;;;23.90;5.63;;;29.80;66.10;;;;;;5012869;28;20187;-67
2023/03/18 07:21:38;;;;;;;22.15;5.32;;;29.80;65.90;;;;;;5012492;28;20174;-69
2023/03/18 07:24:06;;;;;;;24.10;5.37;;;29.20;68.40;;;;;;5012732;28;20620;-76
2023/03/18 07:26:33;;;;;;;18.05;5.82;;;29.30;67.90;;;;;;5012939;28;20177;-73
2023/03/18 07:29:01;;;;;;;21.83;5.78;;;29.30;68.60;;;;;;5012876;28;20267;-75
2023/03/18 07:31:29;;;;;;;22.00;5.50;;;29.40;67.40;;;;;;5012265;28;20213;-68
2023/03/18 07:33:57;;;;;;;24.53;5.50;;;29.40;68.30;;;;;;5013277;28;20173;-70
2023/03/18 07:36:25;;;;;;;24.17;5.73;;;28.90;69.70;;;;;;5012077;28;20190;-75
2023/03/18 07:38:52;;;;;;;24.10;5.93;;;28.10;72.00;;;;;;5012386;28;20177;-69
2023/03/18 07:41:20;;;;;;;18.40;5.57;;;27.60;74.10;;;;;;5012808;28;20587;-67
2023/03/18 07:43:47;;;;;;;32.53;6.77;;;27.30;75.30;;;;;;5012550;28;20217;-67
2023/03/18 07:46:14;;;;;;;25.30;5.97;;;27.20;75.90;;;;;;5012545;28;20200;-71
2023/03/18 07:48:42;;;;;;;26.93;6.77;;;26.90;77.00;;;;;;4988579;28;20340;-67
2023/03/18 07:51:09;;;;;;;29.17;5.70;;;26.80;77.40;;;;;;4988845;28;20726;-71
2023/03/18 07:53:37;;;;;;;25.87;5.97;;;26.60;78.10;;;;;;5005102;28;20532;-73
2023/03/18 07:56:04;;;;;;;26.47;5.83;;;26.50;78.70;;;;;;5000003;28;20188;-72
2023/03/18 07:58:32;;;;;;;24.63;5.57;;;26.40;79.00;;;;;;4997547;28;20697;-75
2023/03/18 08:00:59;;;;;;;27.70;6.10;;;26.30;79.30;;;;;;4994683;28;20320;-76
2023/03/18 08:03:27;;;;;;;24.33;5.53;;;26.20;79.90;;;;;;5008813;28;20183;-71
2023/03/18 08:05:55;;;;;;;25.63;6.33;;;26.10;80.40;;;;;;5010406;28;20177;-73
2023/03/18 08:08:23;;;;;;;26.80;5.83;;;26.00;80.80;;;;;;4990327;28;20530;-77
2023/03/18 08:10:55;;;;;;;23.37;5.83;;;25.90;81.00;;;;;;4988773;28;20652;-69
2023/03/18 08:13:24;;;;;;;26.37;6.33;;;25.90;81.30;;;;;;4989273;28;20230;-69
2023/03/18 08:15:52;;;;;;;32.43;6.73;;;25.80;81.60;;;;;;4969968;28;20189;-71
2023/03/18 08:18:19;;;;;;;28.10;6.33;;;25.80;81.90;;;;;;4989631;28;20170;-78
2023/03/18 08:20:47;;;;;;;27.63;5.90;;;25.80;82.00;;;;;;4987925;28;20744;-67
2023/03/18 08:23:15;;;;;;;29.90;7.27;;;25.70;82.50;;;;;;4986318;28;20675;-73
2023/03/18 08:25:43;;;;;;;29.47;6.67;;;25.70;82.70;;;;;;4989924;28;20676;-67
2023/03/18 08:28:10;;;;;;;28.17;6.50;;;25.60;82.70;;;;;;4983685;28;20255;-69
2023/03/18 08:30:39;;;;;;;31.13;7.30;;;25.60;83.10;;;;;;4984483;28;20182;-69
2023/03/18 08:33:06;;;;;;;31.63;6.47;;;25.50;83.30;;;;;;4991863;28;20567;-68
2023/03/18 08:35:34;;;;;;;27.43;6.07;;;25.50;83.30;;;;;;4988678;28;20174;-72
2023/03/18 08:38:03;;;;;;;32.57;7.33;;;25.40;83.60;;;;;;4981390;28;20270;-69
2023/03/18 08:40:30;;;;;;;37.73;7.73;;;25.40;83.80;;;;;;4986843;28;20178;-74
2023/03/18 08:42:57;;;;;;;32.63;6.07;;;25.40;83.90;;;;;;4990889;28;20656;-77
2023/03/18 08:45:27;;;;;;;30.37;6.50;;;25.40;84.00;;;;;;4990889;28;20229;-71
2023/03/18 08:47:54;;;;;;;34.13;7.07;;;25.30;84.10;;;;;;4989345;28;20670;-72
2023/03/18 08:50:27;;;;;;;33.23;7.07;;;25.30;84.40;;;;;;4995418;28;20234;-71
2023/03/18 08:52:56;;;;;;;27.97;6.57;;;25.30;84.50;;;;;;4993816;28;20232;-75
2023/03/18 08:55:33;;;;;;;34.93;7.60;;;25.30;84.50;;;;;;4994905;28;20182;-74
2023/03/18 08:58:00;;;;;;;26.90;6.93;;;25.30;84.50;;;;;;4983954;28;20194;-73
2023/03/18 09:00:28;;;;;;;33.43;6.73;;;25.30;84.60;;;;;;4990417;28;20186;-73
2023/03/18 09:02:55;;;;;;;29.77;6.50;;;25.20;84.90;;;;;;4995474;28;20237;-76
2023/03/18 09:05:23;;;;;;;35.03;6.60;;;25.20;84.90;;;;;;4994497;28;20221;-73
2023/03/18 09:07:52;;;;;;;33.20;7.27;;;25.20;85.10;;;;;;4994264;28;20186;-69
2023/03/18 09:10:20;;;;;;;37.97;6.97;;;25.20;85.10;;;;;;4994164;28;20641;-67
2023/03/18 09:12:48;;;;;;;28.30;6.63;;;25.10;85.20;;;;;;4995145;28;20210;-67
2023/03/18 09:15:19;;;;;;;29.87;6.77;;;25.10;85.30;;;;;;4993604;28;20268;-69
2023/03/18 09:17:47;;;;;;;28.00;6.13;;;25.20;85.20;;;;;;4991246;28;20189;-70
2023/03/18 09:20:17;;;;;;;36.63;6.83;;;25.20;85.30;;;;;;4994224;28;20186;-68
2023/03/18 09:22:46;;;;;;;30.83;6.70;;;25.10;85.40;;;;;;4993538;28;20178;-72
2023/03/18 09:25:15;;;;;;;33.00;7.37;;;25.10;85.50;;;;;;4990535;28;20568;-68
2023/03/18 09:27:42;;;;;;;30.17;6.87;;;25.10;85.50;;;;;;4990114;28;20673;-66
2023/03/18 09:30:11;;;;;;;39.60;7.40;;;25.10;85.60;;;;;;4990752;28;21217;-67
2023/03/18 09:32:38;;;;;;;35.07;7.73;;;25.10;85.80;;;;;;4987707;28;20609;-70
2023/03/18 09:35:06;;;;;;;30.87;6.30;;;25.00;85.80;;;;;;4990041;28;20190;-72
2023/03/18 09:37:34;;;;;;;36.43;7.30;;;25.00;85.90;;;;;;4991659;28;20198;-69
2023/03/18 09:40:01;;;;;;;29.40;6.67;;;25.10;86.00;;;;;;4992106;28;20181;-68
2023/03/18 09:42:46;;;;;;;35.30;6.90;;;25.10;86.00;;;;;;4985453;28;20188;-66
2023/03/18 09:45:59;;;;;;;37.67;6.27;;;25.10;86.10;;;;;;4987554;28;20220;-73
2023/03/18 09:48:47;;;;;;;29.97;7.47;;;25.00;86.00;;;;;;4926570;29;20281;-74
2023/03/18 09:51:55;;;;;;;38.03;8.03;;;25.00;86.20;;;;;;4925788;29;20243;-73
2023/03/18 09:54:29;;;;;;;33.50;6.73;;;25.00;86.20;;;;;;4986951;28;20720;-68
2023/03/18 09:56:57;;;;;;;26.47;6.53;;;25.00;86.30;;;;;;4989476;28;20186;-67
2023/03/18 09:59:46;;;;;;;34.83;7.43;;;25.00;86.30;;;;;;4990900;28;20178;-71
2023/03/18 10:02:29;;;;;;;33.97;6.23;;;25.00;86.50;;;;;;4991869;28;20178;-67
2023/03/18 10:05:00;;;;;;;36.10;7.53;;;24.90;86.50;;;;;;4990864;28;20573;-67
2023/03/18 10:07:40;;;;;;;36.63;7.70;;;25.00;86.60;;;;;;4991905;28;20178;-68
2023/03/18 10:10:36;;;;;;;28.67;7.63;;;24.90;86.60;;;;;;4991573;28;20691;-69
2023/03/18 10:13:22;;;;;;;37.30;7.10;;;24.90;86.70;;;;;;4990146;28;20288;-71
2023/03/18 10:15:56;;;;;;;35.53;6.77;;;24.90;86.70;;;;;;4962874;28;20234;-68
2023/03/18 10:18:30;;;;;;;34.60;7.17;;;24.90;86.80;;;;;;4993929;28;20227;-69
2023/03/18 10:21:33;;;;;;;36.73;6.93;;;24.90;86.90;;;;;;4993307;28;20189;-71
2023/03/18 10:24:16;;;;;;;25.47;6.03;;;24.90;87.00;;;;;;4985250;28;20222;-69
2023/03/18 10:26:49;;;;;;;31.97;7.67;;;24.90;87.10;;;;;;4993062;28;20202;-67
2023/03/18 10:29:37;;;;;;;31.17;7.17;;;24.80;87.30;;;;;;4985665;28;20198;-67
2023/03/18 10:32:39;;;;;;;41.27;7.57;;;24.80;87.30;;;;;;4990870;28;20198;-67
2023/03/18 10:35:37;;;;;;;43.30;7.47;;;24.80;87.30;;;;;;4993124;28;20216;-67
2023/03/18 10:38:25;;;;;;;37.90;7.93;;;24.80;87.40;;;;;;4993728;28;20389;-68
2023/03/18 10:40:55;;;;;;;29.00;6.23;;;24.80;87.70;;;;;;4993066;28;20217;-67
2023/03/18 10:43:30;;;;;;;32.87;7.63;;;24.80;87.50;;;;;;4987342;28;20252;-67
2023/03/18 10:46:10;;;;;;;33.53;7.00;;;24.80;87.70;;;;;;4992002;28;20194;-67
2023/03/18 10:48:53;;;;;;;46.13;7.73;;;24.80;87.80;;;;;;4991930;28;20637;-67
2023/03/18 10:51:41;;;;;;;32.90;7.00;;;24.80;87.80;;;;;;4989839;28;20550;-68
2023/03/18 10:54:23;;;;;;;30.83;7.53;;;24.80;87.90;;;;;;4993406;28;20190;-73
2023/03/18 10:56:51;;;;;;;39.90;8.20;;;24.80;88.00;;;;;;4991391;28;20186;-67
2023/03/18 10:59:22;;;;;;;37.10;7.77;;;24.80;88.00;;;;;;4987260;28;20182;-74
2023/03/18 11:01:57;;;;;;;38.37;7.93;;;24.70;88.00;;;;;;4988136;28;20189;-68
2023/03/18 11:04:27;;;;;;;27.67;7.50;;;24.70;88.10;;;;;;4990930;28;20209;-69
2023/03/18 11:07:07;;;;;;;31.80;7.03;;;24.70;88.10;;;;;;4993235;28;20169;-70
2023/03/18 11:09:41;;;;;;;37.60;7.43;;;24.70;88.10;;;;;;4991558;28;20186;-68
2023/03/18 11:12:23;;;;;;;30.50;7.10;;;24.80;88.20;;;;;;4991101;28;20182;-67
2023/03/18 11:14:52;;;;;;;34.97;7.17;;;24.70;88.20;;;;;;4993265;28;20252;-67
2023/03/18 11:17:29;;;;;;;34.53;6.80;;;24.70;88.20;;;;;;4992529;28;20190;-72
2023/03/18 11:20:25;;;;;;;30.87;7.83;;;24.70;88.10;;;;;;4990986;28;20178;-67
2023/03/18 11:22:56;;;;;;;34.57;6.83;;;24.70;88.20;;;;;;4984503;28;20185;-67
2023/03/18 11:25:29;;;;;;;33.27;7.87;;;24.60;88.30;;;;;;4991820;28;20311;-73
2023/03/18 11:28:05;;;;;;;35.77;7.47;;;24.70;88.20;;;;;;4993027;28;20232;-70
2023/03/18 11:30:47;;;;;;;41.33;7.37;;;24.60;88.40;;;;;;5002907;28;20243;-73
2023/03/18 11:33:19;;;;;;;29.63;6.40;;;24.60;88.30;;;;;;5001762;28;20584;-70
2023/03/18 11:35:57;;;;;;;31.03;6.77;;;24.60;88.40;;;;;;5005548;28;20648;-72
2023/03/18 11:38:33;;;;;;;31.57;7.33;;;24.60;88.30;;;;;;4988918;28;20258;-73
2023/03/18 11:41:12;;;;;;;28.43;6.47;;;24.60;88.50;;;;;;5000019;28;20659;-66
2023/03/18 11:43:53;;;;;;;35.70;7.27;;;24.50;88.50;;;;;;4994444;28;20251;-66
2023/03/18 11:46:23;;;;;;;36.20;7.37;;;24.50;88.60;;;;;;4999593;28;20549;-68
2023/03/18 11:48:51;;;;;;;41.20;7.40;;;24.50;88.70;;;;;;5004474;28;20220;-67
2023/03/18 11:51:52;;;;;;;35.13;7.77;;;24.50;88.60;;;;;;5006420;28;20651;-66
2023/03/18 11:54:37;;;;;;;34.23;7.40;;;24.50;88.80;;;;;;5003457;28;20176;-66
2023/03/18 11:57:14;;;;;;;34.83;6.93;;;24.40;88.80;;;;;;4996845;28;20337;-69
2023/03/18 11:59:53;;;;;;;31.33;7.67;;;24.50;89.00;;;;;;5007141;28;20181;-67
2023/03/18 12:02:41;;;;;;;31.17;7.40;;;24.40;89.00;;;;;;5001633;28;20182;-65
2023/03/18 12:05:17;;;;;;;36.70;7.67;;;24.40;89.00;;;;;;4997839;28;20224;-66
2023/03/18 12:08:02;;;;;;;31.77;7.13;;;24.40;88.90;;;;;;5012132;28;20180;-68
2023/03/18 12:10:40;;;;;;;31.80;7.17;;;24.40;89.00;;;;;;5007341;28;20207;-68
2023/03/18 12:13:31;;;;;;;34.23;7.23;;;24.40;89.00;;;;;;5007480;28;20264;-69
2023/03/18 12:16:04;;;;;;;34.30;7.37;;;24.30;89.00;;;;;;5011513;28;20188;-66
2023/03/18 12:18:59;;;;;;;35.40;7.83;;;24.30;89.10;;;;;;5012108;28;20189;-66
2023/03/18 12:21:52;;;;;;;32.00;7.43;;;24.30;89.10;;;;;;4987429;28;20192;-66
2023/03/18 12:24:20;;;;;;;28.33;7.07;;;24.30;89.20;;;;;;4995853;28;20217;-67
2023/03/18 12:27:12;;;;;;;28.40;6.97;;;24.30;89.20;;;;;;4996047;28;20198;-70
2023/03/18 12:29:45;;;;;;;35.47;7.33;;;24.30;89.30;;;;;;4996029;28;20178;-67
2023/03/18 12:32:36;;;;;;;37.50;7.00;;;24.30;89.40;;;;;;4996449;28;20640;-66
2023/03/18 12:35:04;;;;;;;35.70;7.50;;;24.20;89.50;;;;;;4996318;28;20189;-67
2023/03/18 12:38:23;;;;;;;38.13;8.23;;;24.20;89.50;;;;;;4994022;28;20184;-67
2023/03/18 12:41:00;;;;;;;34.93;7.23;;;24.20;89.60;;;;;;4988279;28;20183;-68
2023/03/18 12:43:43;;;;;;;36.57;7.93;;;24.20;89.70;;;;;;4995801;28;20174;-67
2023/03/18 12:46:40;;;;;;;31.90;6.63;;;24.10;89.60;;;;;;4998612;28;20210;-67
2023/03/18 12:49:32;;;;;;;27.20;6.63;;;24.10;89.60;;;;;;5004868;28;20186;-68
2023/03/18 12:52:03;;;;;;;32.37;7.23;;;24.00;89.70;;;;;;4984343;28;20190;-67
2023/03/18 12:54:57;;;;;;;36.20;8.10;;;24.00;89.80;;;;;;4994901;28;20239;-68
2023/03/18 12:57:44;;;;;;;31.93;8.13;;;23.90;90.00;;;;;;4988892;28;20650;-67
2023/03/18 13:00:49;;;;;;;30.27;7.50;;;23.90;89.80;;;;;;5000758;28;20179;-69